Terminal Aerodrome Forecast
Issued by NWS

Home | Current Version | Previous Version | Graphics & Text | Print | Product List | Glossary On
Versions: 1 2 3 4 5 6 7 8 9 10 11 12 13 14 15 16 17
000
FTUS43 KICT 231143
TAFSLN
TAF
KSLN 231143Z 2312/2412 14017KT P6SM OVC015
     FM231500 16017G25KT P6SM OVC017
     FM231700 17022G26KT P6SM BKN025
     FM231900 18026G35KT P6SM SCT030 BKN200=

USA.gov is the U.S. government's official web portal to all federal, state and local government web resources and services.